KVCT/VCT METAR and TAF weather

Enter ICAO airport designator
Station Type Date Time Source
KVCT METAR 2021/10/22 17:51 UTC NOAA

KVCT 221751Z 11006KT 10SM SCT036 29/19 A3006 RMK AO2 SLP176 T02890194 10289 20172 58011


Station Type Date Time Source
KVCT Decoded METAR 2021/10/22 17:51 UTC NOAA

VICTORIA REGIONAL AIRPORT, TX, United States (KVCT) 28-52N 96-56W 31M
Oct 22, 2021 - 01:51 PM EDT / 2021.10.22 1751 UTC
Wind: from the ESE (110 degrees) at 7 MPH (6 KT):0
Visibility: 10 mile(s):0
Sky conditions: partly cloudy
Temperature: 84.0 F (28.9 C)
Dew Point: 66.9 F (19.4 C)
Relative Humidity: 56%
Pressure (altimeter): 30.06 in. Hg (1017 hPa)
Pressure tendency: 0.03 inches (1.1 hPa) lower than three hours ago
ob: KVCT 221751Z 11006KT 10SM SCT036 29/19 A3006 RMK AO2 SLP176 T02890194 10289 20172 58011
cycle: 18

Station Type Date Time Source
KVCT TAF 2021/10/22 18:42 UTC NOAA

TAF KVCT 221739Z 2218/2318 07003KT P6SM SCT025
FM222200 12007KT P6SM FEW050 SCT120
FM230800 VRB03KT 3SM BR FEW010
TEMPO 2310/2314 1SM BR BKN005
FM231500 15008KT P6SM SCT030

Example: see airport list